Time;durP1;ratioP1;P1;durP2;ratioP2;P2;SDS_P1;SDS_P2;PMS_P1;PMS_P2;Temp;Humidity;BMP_temperature;BMP_pressure;BME280_temperature;BME280_humidity;BME280_pressure;Samples;Min_cycle;Max_cycle;Signal;HPM_P1;HPM_P2
2022/08/15 00:00:55;;;;;;;24.90;18.10;;;;;;;19.48;63.61;99614.16;5034437;28;20537;-62
2022/08/15 00:03:31;;;;;;;31.08;21.40;;;;;;;19.52;63.15;99613.28;5044251;28;20069;-63
2022/08/15 00:06:00;;;;;;;18.35;12.85;;;;;;;19.54;63.35;99618.38;5053932;28;20506;-63
2022/08/15 00:08:28;;;;;;;18.48;12.88;;;;;;;19.53;63.66;99624.84;5035834;28;20056;-62
2022/08/15 00:10:57;;;;;;;17.92;12.75;;;;;;;19.50;63.85;99620.03;5054367;28;20041;-63
2022/08/15 00:13:28;;;;;;;16.35;12.68;;;;;;;19.49;63.82;99623.81;5036345;28;20409;-63
2022/08/15 00:15:54;;;;;;;;;;;;;;;19.47;64.99;99620.63;5054918;28;20047;-63
2022/08/15 00:18:22;;;;;;;24.15;13.20;;;;;;;19.43;64.18;99623.09;5054222;28;20019;-62
2022/08/15 00:20:48;;;;;;;17.23;13.43;;;;;;;19.42;64.84;99623.41;5053666;28;20084;-63
2022/08/15 00:23:17;;;;;;;17.13;13.93;;;;;;;19.39;64.74;99621.28;5035861;28;20449;-63
2022/08/15 00:25:47;;;;;;;21.10;13.32;;;;;;;19.35;65.26;99626.41;5053836;28;20045;-64
2022/08/15 00:28:14;;;;;;;17.60;13.80;;;;;;;19.32;65.84;99626.22;5035903;28;20045;-62
2022/08/15 00:30:40;;;;;;;19.52;14.27;;;;;;;19.30;65.17;99631.88;5018885;28;20134;-64
2022/08/15 00:33:06;;;;;;;15.35;13.85;;;;;;;19.32;64.72;99629.69;5052428;28;20414;-63
2022/08/15 00:35:41;;;;;;;22.55;14.98;;;;;;;19.33;64.76;99630.50;5051834;28;20045;-63
2022/08/15 00:38:11;;;;;;;17.67;14.15;;;;;;;19.29;65.98;99632.94;5072060;28;20136;-64
2022/08/15 00:43:23;;;;;;;18.17;14.85;;;;;;;19.12;67.16;99630.78;5054954;28;20404;-64
2022/08/15 00:45:51;;;;;;;21.85;14.63;;;;;;;19.08;65.99;99632.41;5073614;28;20072;-65
2022/08/15 00:51:03;;;;;;;17.95;15.63;;;;;;;19.05;68.66;99635.69;5052244;28;20053;-64
2022/08/15 00:53:29;;;;;;;20.88;15.30;;;;;;;19.01;68.68;99638.16;5034832;28;20494;-63
2022/08/15 00:55:55;;;;;;;24.52;16.73;;;;;;;18.97;70.33;99629.06;5052972;28;20045;-64
2022/08/15 00:58:21;;;;;;;21.98;15.95;;;;;;;18.95;69.48;99635.81;5018716;28;20055;-65
2022/08/15 01:00:48;;;;;;;25.98;16.85;;;;;;;18.92;70.13;99637.19;5053000;28;20529;-64
2022/08/15 01:03:20;;;;;;;22.33;18.20;;;;;;;18.89;70.43;99643.13;5034847;28;20072;-64
2022/08/15 01:05:49;;;;;;;25.63;17.70;;;;;;;18.89;72.13;99639.66;5052970;28;20041;-63
2022/08/15 01:08:16;;;;;;;27.73;18.15;;;;;;;18.86;70.80;99637.53;5053236;28;20558;-63
2022/08/15 01:10:43;;;;;;;25.23;18.20;;;;;;;18.84;71.44;99633.22;5035226;28;20067;-63
2022/08/15 01:13:09;;;;;;;23.55;17.35;;;;;;;18.86;71.63;99643.69;5053057;28;20037;-64
2022/08/15 01:15:35;;;;;;;22.20;18.00;;;;;;;18.82;71.92;99646.16;5017894;28;20041;-63
2022/08/15 01:18:01;;;;;;;22.38;17.35;;;;;;;18.80;72.04;99642.16;5050700;28;20498;-65
2022/08/15 01:20:31;;;;;;;26.73;17.58;;;;;;;18.79;72.14;99638.66;5020499;28;20491;-63
2022/08/15 01:23:04;;;;;;;24.93;18.03;;;;;;;18.77;72.30;99643.53;5014842;28;20446;-63
2022/08/15 01:25:59;;;;;;;21.65;17.33;;;;;;;18.76;72.50;99643.78;5041055;28;20326;-65
2022/08/15 01:28:28;;;;;;;24.48;17.95;;;;;;;18.72;72.38;99643.53;5035319;28;20163;-65
2022/08/15 01:30:57;;;;;;;21.10;17.83;;;;;;;18.69;72.93;99649.47;5052542;28;20037;-65
2022/08/15 01:33:25;;;;;;;20.87;17.13;;;;;;;18.61;73.75;99648.22;5018175;28;20033;-64
2022/08/15 01:35:52;;;;;;;22.30;18.50;;;;;;;18.59;74.80;99647.72;5050586;28;20310;-64
2022/08/15 01:38:35;;;;;;;25.55;18.67;;;;;;;18.56;75.04;99647.44;5051308;28;20109;-64
2022/08/15 01:41:39;;;;;;;23.75;18.33;;;;;;;18.52;74.70;99651.78;5050280;28;20048;-63
2022/08/15 01:44:13;;;;;;;21.67;17.83;;;;;;;18.47;75.11;99649.97;4984663;28;20063;-65
2022/08/15 01:46:47;;;;;;;24.67;18.15;;;;;;;18.42;75.66;99651.91;5012179;28;20049;-65
2022/08/15 01:49:20;;;;;;;23.13;17.88;;;;;;;18.36;75.89;99648.47;4992088;28;20124;-65
2022/08/15 01:51:46;;;;;;;22.25;18.65;;;;;;;18.32;76.04;99648.25;5030990;28;20045;-64
2022/08/15 01:54:13;;;;;;;23.30;19.08;;;;;;;18.32;76.47;99656.28;5033356;28;20037;-62
2022/08/15 01:56:43;;;;;;;23.83;18.23;;;;;;;18.35;76.08;99654.91;5033980;28;20037;-64
2022/08/15 01:59:20;;;;;;;22.92;19.48;;;;;;;18.35;75.55;99650.34;5034146;28;20506;-63
2022/08/15 02:01:46;;;;;;;22.55;18.33;;;;;;;18.36;74.55;99657.31;5034174;28;20048;-64
2022/08/15 02:04:19;;;;;;;23.55;18.02;;;;;;;18.34;74.78;99656.00;5017519;28;20445;-63
2022/08/15 02:06:45;;;;;;;22.35;17.90;;;;;;;18.34;74.74;99653.31;5050658;28;20040;-63
2022/08/15 02:09:16;;;;;;;22.13;19.17;;;;;;;18.36;74.91;99651.94;5050446;28;20305;-63
2022/08/15 02:11:47;;;;;;;26.35;18.08;;;;;;;18.36;75.25;99654.63;5034495;28;20052;-64
2022/08/15 02:14:13;;;;;;;21.55;17.58;;;;;;;18.36;75.30;99661.88;5050066;28;20041;-63
2022/08/15 02:16:40;;;;;;;20.88;18.13;;;;;;;18.32;75.48;99661.66;5050401;28;20040;-64
2022/08/15 02:19:09;;;;;;;24.80;18.23;;;;;;;18.27;74.69;99653.63;5033771;28;20049;-62
2022/08/15 02:21:35;;;;;;;22.08;18.45;;;;;;;18.23;75.38;99660.63;5033650;28;20040;-64
2022/08/15 02:24:02;;;;;;;21.98;18.65;;;;;;;18.19;74.81;99653.44;5033473;28;20170;-65
2022/08/15 02:26:29;;;;;;;24.75;17.73;;;;;;;18.15;75.12;99659.38;5050217;28;20071;-65
2022/08/15 02:28:55;;;;;;;23.02;17.98;;;;;;;18.14;74.83;99659.63;5051530;28;20399;-64
2022/08/15 02:31:24;;;;;;;23.83;18.77;;;;;;;18.13;74.98;99663.41;5053888;28;20055;-62
2022/08/15 02:33:58;;;;;;;22.20;18.85;;;;;;;18.12;74.78;99657.25;5048473;28;20469;-65
2022/08/15 02:36:26;;;;;;;22.55;17.77;;;;;;;18.13;75.19;99664.22;5051374;28;20052;-65
2022/08/15 02:38:53;;;;;;;22.92;19.08;;;;;;;18.14;74.70;99663.13;5033122;28;20086;-64
2022/08/15 02:41:22;;;;;;;20.35;18.10;;;;;;;18.16;74.30;99666.34;5065210;28;20040;-62
2022/08/15 02:43:48;;;;;;;23.83;17.92;;;;;;;18.18;74.17;99668.75;5053579;28;20110;-64
2022/08/15 02:46:16;;;;;;;27.73;18.45;;;;;;;18.20;73.94;99682.66;5053308;28;20036;-63
2022/08/15 02:48:49;;;;;;;22.13;17.98;;;;;;;18.20;73.87;99677.28;5020720;28;20190;-63
2022/08/15 02:51:17;;;;;;;20.17;17.95;;;;;;;18.26;73.44;99678.84;5071383;28;20068;-63
2022/08/15 02:53:46;;;;;;;21.05;18.10;;;;;;;18.37;73.40;99685.75;5069095;28;20075;-62
2022/08/15 02:56:12;;;;;;;21.63;18.08;;;;;;;18.63;72.49;99679.34;5069466;28;20040;-63
2022/08/15 02:58:38;;;;;;;23.33;17.98;;;;;;;18.94;71.41;99683.38;5070879;28;20561;-63
2022/08/15 03:01:08;;;;;;;21.10;17.88;;;;;;;19.25;69.46;99688.38;5069045;28;20091;-62
2022/08/15 03:03:38;;;;;;;19.05;16.95;;;;;;;19.54;68.34;99687.50;5071177;28;20131;-63
2022/08/15 03:06:09;;;;;;;23.00;18.08;;;;;;;19.74;67.29;99687.25;5036482;28;20044;-62
2022/08/15 03:08:37;;;;;;;24.42;17.73;;;;;;;19.99;66.35;99691.44;5069670;28;20044;-64
2022/08/15 03:11:05;;;;;;;22.77;17.05;;;;;;;20.08;65.97;99680.81;5070053;28;20036;-63
2022/08/15 03:13:33;;;;;;;23.27;17.67;;;;;;;20.21;65.25;99685.47;5029857;28;20051;-64
2022/08/15 03:15:59;;;;;;;21.25;16.75;;;;;;;20.41;64.29;99676.22;5033298;28;20051;-63
2022/08/15 03:18:32;;;;;;;25.70;16.85;;;;;;;20.73;63.36;99686.19;5032988;28;20055;-63
2022/08/15 03:21:01;;;;;;;23.00;16.52;;;;;;;20.87;62.57;99678.94;5016652;28;20048;-62
2022/08/15 03:23:32;;;;;;;22.15;16.25;;;;;;;20.99;62.25;99689.22;5048516;28;20044;-63
2022/08/15 03:26:00;;;;;;;24.45;17.45;;;;;;;21.10;62.05;99687.13;5053774;28;20068;-63
2022/08/15 03:28:28;;;;;;;25.42;18.20;;;;;;;21.20;61.91;99683.44;5069392;28;20565;-63
2022/08/15 03:31:04;;;;;;;26.33;17.58;;;;;;;21.33;61.43;99690.72;5052769;28;20040;-63
2022/08/15 03:33:31;;;;;;;23.77;16.98;;;;;;;21.49;61.06;99681.22;5052340;28;20048;-63
2022/08/15 03:35:58;;;;;;;21.00;16.02;;;;;;;21.68;60.36;99688.41;5069467;28;20048;-62
2022/08/15 03:38:26;;;;;;;24.23;16.88;;;;;;;21.78;60.35;99693.56;5069328;28;20059;-63
2022/08/15 03:40:52;;;;;;;24.83;16.25;;;;;;;21.72;60.44;99690.16;5069554;28;20391;-63
2022/08/15 03:43:21;;;;;;;22.33;16.92;;;;;;;21.52;60.96;99688.72;5069057;28;20044;-63
2022/08/15 03:46:16;;;;;;;22.20;17.35;;;;;;;21.27;61.69;99692.72;5069447;28;20125;-64
2022/08/15 03:48:45;;;;;;;20.52;16.83;;;;;;;21.03;62.60;99692.94;5050804;28;20390;-63
2022/08/15 03:51:11;;;;;;;23.15;17.25;;;;;;;20.88;63.30;99695.88;5052622;28;20489;-63
2022/08/15 03:53:44;;;;;;;20.58;17.25;;;;;;;20.83;63.53;99694.09;5051983;28;20387;-64
2022/08/15 03:56:18;;;;;;;21.85;18.02;;;;;;;20.99;63.09;99686.53;5069156;28;20405;-64
2022/08/15 03:58:46;;;;;;;20.45;17.33;;;;;;;21.27;62.28;99684.63;5069290;28;20045;-63
2022/08/15 04:01:17;;;;;;;21.55;17.70;;;;;;;21.54;61.33;99691.13;5069238;28;20046;-64
2022/08/15 04:03:44;;;;;;;22.08;17.52;;;;;;;21.62;60.95;99686.88;5052454;28;20045;-63
2022/08/15 04:06:14;;;;;;;20.85;17.25;;;;;;;21.78;60.87;99690.84;5072722;28;20413;-63
2022/08/15 04:08:41;;;;;;;22.77;17.25;;;;;;;21.90;60.66;99690.31;5055935;28;20091;-63
2022/08/15 04:11:07;;;;;;;21.15;16.33;;;;;;;21.98;60.07;99695.78;5055947;28;20093;-63
2022/08/15 04:13:39;;;;;;;19.52;17.40;;;;;;;22.02;60.01;99692.47;5059875;28;20033;-63
2022/08/15 04:16:06;;;;;;;22.55;16.70;;;;;;;22.16;59.63;99690.53;5052562;28;20052;-66
2022/08/15 04:18:33;;;;;;;19.73;16.48;;;;;;;22.18;59.50;99701.84;5036039;28;20056;-63
2022/08/15 04:21:03;;;;;;;25.65;17.02;;;;;;;22.36;58.85;99691.97;5054608;28;20110;-63
2022/08/15 04:23:30;;;;;;;25.85;17.98;;;;;;;22.55;58.30;99700.63;5072011;28;20102;-63
2022/08/15 04:25:57;;;;;;;24.88;17.02;;;;;;;22.60;58.34;99697.03;5072192;28;20047;-63
2022/08/15 04:28:29;;;;;;;23.42;17.25;;;;;;;22.80;57.78;99706.50;5072360;28;20501;-63
2022/08/15 04:30:55;;;;;;;20.45;17.63;;;;;;;22.96;57.17;99704.22;5055483;28;20037;-64
2022/08/15 04:33:23;;;;;;;22.88;17.00;;;;;;;23.08;57.38;99694.38;5025291;28;20037;-64
2022/08/15 04:36:12;;;;;;;22.95;17.10;;;;;;;23.09;56.74;99701.41;5054167;28;20040;-64
2022/08/15 04:38:42;;;;;;;29.00;17.45;;;;;;;23.10;57.47;99696.78;5018967;28;20051;-64
2022/08/15 04:41:11;;;;;;;25.48;17.60;;;;;;;23.27;57.36;99701.47;5035291;28;20029;-64
2022/08/15 04:43:40;;;;;;;27.10;17.70;;;;;;;23.32;56.84;99701.28;5051793;28;20148;-64
2022/08/15 04:46:09;;;;;;;28.67;17.90;;;;;;;23.38;56.44;99699.25;5036061;28;20047;-65
2022/08/15 04:48:35;;;;;;;20.60;16.92;;;;;;;23.34;56.50;99701.78;5051690;28;20057;-64
2022/08/15 04:51:03;;;;;;;23.05;17.25;;;;;;;23.32;56.96;99699.41;5051962;28;20041;-64
2022/08/15 04:53:33;;;;;;;23.17;17.35;;;;;;;23.28;56.72;99700.34;5051906;28;20425;-63
2022/08/15 04:56:02;;;;;;;27.80;18.05;;;;;;;23.26;56.34;99697.94;5035778;28;20073;-64
2022/08/15 04:58:31;;;;;;;21.15;17.30;;;;;;;23.28;56.99;99698.44;5052037;28;20037;-63
2022/08/15 05:00:59;;;;;;;22.80;17.65;;;;;;;23.29;56.50;99693.81;5051355;28;20033;-65
2022/08/15 05:03:32;;;;;;;26.92;17.50;;;;;;;23.25;56.79;99704.47;5020714;28;20060;-63
2022/08/15 05:06:01;;;;;;;23.73;18.80;;;;;;;23.21;56.89;99706.22;5051178;28;20052;-64
2022/08/15 05:08:30;;;;;;;21.88;17.48;;;;;;;23.17;57.02;99707.94;5034604;28;20049;-63
2022/08/15 05:11:03;;;;;;;28.30;18.03;;;;;;;23.13;57.79;99702.38;5035226;28;20123;-67
2022/08/15 05:13:31;;;;;;;25.40;18.17;;;;;;;23.15;57.87;99704.78;5035104;28;20052;-69
2022/08/15 05:15:58;;;;;;;24.00;18.33;;;;;;;23.13;57.94;99706.97;5034640;28;20044;-64
2022/08/15 05:18:31;;;;;;;24.88;18.13;;;;;;;23.07;58.32;99700.13;5035787;28;20104;-62
2022/08/15 05:20:57;;;;;;;27.63;17.88;;;;;;;23.02;58.32;99698.34;5051331;28;20502;-63
2022/08/15 05:23:26;;;;;;;28.05;18.05;;;;;;;23.00;58.50;99699.75;5046055;28;20064;-64
2022/08/15 05:25:55;;;;;;;20.50;17.90;;;;;;;22.98;58.65;99700.09;5029906;28;20135;-63
2022/08/15 05:28:22;;;;;;;;;;;;;;;22.95;58.94;99708.03;5050654;28;20102;-61
2022/08/15 05:30:50;;;;;;;24.42;17.30;;;;;;;22.86;59.12;99697.94;5050091;28;19928;-64
2022/08/15 05:33:22;;;;;;;21.10;17.58;;;;;;;22.88;59.66;99709.25;5049254;28;20075;-62
2022/08/15 05:35:54;;;;;;;31.80;17.80;;;;;;;22.87;58.88;99710.34;5051473;28;20041;-63
2022/08/15 05:38:30;;;;;;;27.95;18.20;;;;;;;22.86;58.96;99705.25;5033394;28;20437;-62
2022/08/15 05:41:05;;;;;;;24.23;18.00;;;;;;;22.87;58.90;99698.75;5032480;28;20124;-62
2022/08/15 05:43:40;;;;;;;22.58;18.55;;;;;;;22.93;59.35;99699.41;5028546;28;20052;-63
2022/08/15 05:46:33;;;;;;;32.97;17.33;;;;;;;22.98;58.88;99693.88;5018319;28;20063;-63
2022/08/15 05:49:05;;;;;;;20.35;16.60;;;;;;;23.01;58.70;99695.97;5051833;28;20300;-64
2022/08/15 05:51:55;;;;;;;24.25;17.02;;;;;;;23.07;59.10;99698.22;5065576;28;20044;-62
2022/08/15 05:54:28;;;;;;;21.58;16.77;;;;;;;23.13;58.58;99702.38;5032384;28;20052;-62
2022/08/15 05:57:05;;;;;;;22.85;17.67;;;;;;;23.15;58.48;99695.84;5019287;28;20040;-63
2022/08/15 05:59:37;;;;;;;24.70;16.88;;;;;;;23.21;58.30;99700.81;5052278;28;20056;-61
2022/08/15 06:02:09;;;;;;;26.55;17.20;;;;;;;23.30;57.96;99698.91;5035306;28;20170;-63
2022/08/15 06:04:51;;;;;;;22.15;16.95;;;;;;;23.32;57.18;99696.72;5035039;28;20131;-64
2022/08/15 06:07:17;;;;;;;23.30;17.20;;;;;;;23.40;56.74;99697.03;5069135;28;20554;-64
2022/08/15 06:10:03;;;;;;;25.08;17.35;;;;;;;23.46;56.27;99699.25;5050026;28;20395;-63
2022/08/15 06:12:39;;;;;;;29.00;18.52;;;;;;;23.54;55.80;99698.50;5033240;28;20037;-63
2022/08/15 06:15:21;;;;;;;25.35;16.60;;;;;;;23.65;56.36;99699.00;5038527;28;20136;-62
2022/08/15 06:17:57;;;;;;;26.67;18.42;;;;;;;23.79;54.93;99696.94;5050253;28;20036;-63
2022/08/15 06:20:52;;;;;;;29.30;18.75;;;;;;;23.93;54.57;99699.50;5050231;28;20080;-64
2022/08/15 06:23:49;;;;;;;33.95;20.00;;;;;;;23.99;54.43;99695.50;5031853;28;20044;-65
2022/08/15 06:26:36;;;;;;;34.10;20.67;;;;;;;24.05;53.78;99700.78;5003944;28;20489;-63
2022/08/15 06:29:10;;;;;;;30.38;21.10;;;;;;;24.07;54.21;99701.25;5011781;28;20366;-64
2022/08/15 06:31:43;;;;;;;36.20;18.85;;;;;;;24.09;53.91;99699.00;5046841;28;20156;-65
2022/08/15 06:34:22;;;;;;;29.52;19.80;;;;;;;24.16;53.79;99704.75;5026834;28;20107;-64
2022/08/15 06:37:25;;;;;;;30.00;19.58;;;;;;;24.22;53.22;99701.56;5026563;28;20491;-63
2022/08/15 06:40:18;;;;;;;30.65;22.05;;;;;;;24.30;51.31;99710.78;5028273;28;20457;-64
2022/08/15 06:42:45;;;;;;;30.85;21.42;;;;;;;24.34;51.23;99702.81;4975793;28;20153;-64
2022/08/15 06:45:19;;;;;;;27.65;20.00;;;;;;;24.32;50.38;99699.63;5011167;28;20051;-64
2022/08/15 06:47:46;;;;;;;26.08;18.85;;;;;;;24.36;49.18;99700.59;5019864;28;20043;-63
2022/08/15 06:50:19;;;;;;;27.35;18.55;;;;;;;24.40;48.74;99701.53;5031043;28;20561;-63
2022/08/15 06:52:53;;;;;;;20.90;14.80;;;;;;;24.48;46.20;99704.25;5048467;28;20041;-64
2022/08/15 06:55:21;;;;;;;26.25;19.02;;;;;;;24.61;47.61;99698.94;5015610;28;20041;-63
2022/08/15 06:57:58;;;;;;;26.23;18.75;;;;;;;24.67;48.16;99711.22;5028362;28;20059;-63
2022/08/15 07:00:33;;;;;;;21.70;16.45;;;;;;;24.70;47.22;99703.22;5047763;28;20041;-65
2022/08/15 07:03:05;;;;;;;29.10;14.70;;;;;;;24.72;46.41;99702.91;5047607;28;20048;-64
2022/08/15 07:05:44;;;;;;;18.02;11.77;;;;;;;24.77;44.64;99700.03;5047873;28;20049;-65
2022/08/15 07:08:37;;;;;;;18.95;13.20;;;;;;;24.92;44.56;99698.69;5032813;28;20368;-63
2022/08/15 07:11:21;;;;;;;16.77;11.75;;;;;;;25.02;44.51;99703.75;5058424;28;20139;-63
2022/08/15 07:14:04;;;;;;;14.45;9.63;;;;;;;25.01;43.21;99704.09;5049729;28;20048;-63
2022/08/15 07:16:50;;;;;;;17.30;9.95;;;;;;;25.08;42.67;99707.84;5051572;28;20055;-64
2022/08/15 07:19:16;;;;;;;15.18;8.13;;;;;;;25.05;42.27;99718.56;5034327;28;20072;-64
2022/08/15 07:21:48;;;;;;;10.75;7.53;;;;;;;24.98;42.10;99712.88;5050009;28;20504;-62
2022/08/15 07:24:17;;;;;;;9.30;7.05;;;;;;;25.07;42.09;99708.19;5050993;28;20068;-63
2022/08/15 07:26:50;;;;;;;9.20;5.80;;;;;;;25.07;40.99;99702.78;5051431;28;20465;-64
2022/08/15 07:29:28;;;;;;;8.55;5.55;;;;;;;25.09;41.07;99704.03;5029898;28;20308;-63
2022/08/15 07:32:07;;;;;;;10.43;5.70;;;;;;;25.10;41.23;99716.47;5019310;28;20040;-63
2022/08/15 07:34:35;;;;;;;13.82;5.20;;;;;;;25.13;40.92;99696.03;5027551;28;20052;-61
2022/08/15 07:37:04;;;;;;;6.65;5.03;;;;;;;25.19;41.15;99702.13;5050113;28;20408;-64
2022/08/15 07:39:37;;;;;;;9.90;5.20;;;;;;;25.31;40.83;99703.00;5017779;28;20473;-64
2022/08/15 07:42:10;;;;;;;7.90;5.13;;;;;;;25.32;40.94;99703.78;5054355;28;20041;-64
2022/08/15 07:44:36;;;;;;;13.02;4.57;;;;;;;25.32;39.97;99707.28;5069768;28;20128;-63
2022/08/15 07:47:26;;;;;;;7.43;4.40;;;;;;;25.34;41.08;99701.53;5071277;28;20174;-65
2022/08/15 07:49:58;;;;;;;9.13;4.80;;;;;;;25.40;40.79;99692.09;5038587;28;20064;-64
2022/08/15 07:52:24;;;;;;;8.05;5.10;;;;;;;25.38;40.85;99700.56;5017136;28;20048;-64
2022/08/15 07:54:57;;;;;;;7.35;4.35;;;;;;;25.35;40.85;99698.50;5032896;28;20049;-64
2022/08/15 07:57:35;;;;;;;6.38;4.30;;;;;;;25.36;40.66;99683.03;5029881;28;20053;-62
2022/08/15 08:00:27;;;;;;;6.25;4.30;;;;;;;25.38;40.37;99706.00;5012572;28;20128;-65
2022/08/15 08:03:08;;;;;;;7.93;4.47;;;;;;;25.41;40.69;99699.09;5012015;28;20041;-64
2022/08/15 08:05:51;;;;;;;8.32;5.07;;;;;;;25.52;40.70;99702.22;5007914;28;20037;-64
2022/08/15 08:08:19;;;;;;;5.37;4.20;;;;;;;25.58;39.97;99698.97;4995387;28;20104;-64
2022/08/15 08:10:50;;;;;;;8.50;4.32;;;;;;;25.64;40.49;99706.94;4996364;28;20422;-64
2022/08/15 08:13:35;;;;;;;7.10;5.15;;;;;;;25.75;39.73;99702.72;4994055;28;20049;-64
2022/08/15 08:16:11;;;;;;;10.40;4.32;;;;;;;25.83;40.37;99689.09;4963116;28;20045;-63
2022/08/15 08:18:45;;;;;;;6.95;4.32;;;;;;;25.93;39.57;99698.75;5011164;28;20072;-64
2022/08/15 08:21:16;;;;;;;6.32;4.40;;;;;;;26.01;39.35;99694.38;4995016;28;20084;-66
2022/08/15 08:23:55;;;;;;;8.18;3.90;;;;;;;26.03;39.11;99692.13;5010918;28;20049;-64
2022/08/15 08:26:40;;;;;;;9.48;4.00;;;;;;;25.97;39.11;99693.44;5026788;28;20036;-65
2022/08/15 08:29:34;;;;;;;8.27;3.95;;;;;;;25.95;38.49;99698.44;5029680;28;20045;-63
2022/08/15 08:32:15;;;;;;;7.65;4.00;;;;;;;25.91;38.19;99692.06;5014454;28;20072;-65
2022/08/15 08:35:05;;;;;;;11.00;3.67;;;;;;;25.91;37.98;99692.84;5032919;28;20052;-66
2022/08/15 08:37:34;;;;;;;10.57;3.78;;;;;;;25.93;37.88;99696.03;5013007;28;20045;-64
2022/08/15 08:43:19;;;;;;;5.55;3.65;;;;;;;25.80;37.65;99694.38;5032777;28;20124;-64
2022/08/15 08:46:19;;;;;;;5.00;3.30;;;;;;;25.73;37.62;99696.81;4981024;28;20037;-64
2022/08/15 08:49:05;;;;;;;4.57;3.30;;;;;;;25.64;37.21;99691.44;5033600;28;20084;-64
2022/08/15 08:51:57;;;;;;;6.30;3.83;;;;;;;25.70;37.41;99687.41;5051305;28;20087;-65
2022/08/15 08:54:33;;;;;;;7.63;4.07;;;;;;;25.85;36.89;99690.69;5051074;28;20158;-65
2022/08/15 08:57:02;;;;;;;4.55;3.30;;;;;;;25.88;36.47;99688.09;5017977;28;20053;-64
2022/08/15 08:59:34;;;;;;;6.07;3.55;;;;;;;25.90;35.66;99696.72;5051405;28;20048;-64
2022/08/15 09:02:34;;;;;;;6.88;3.33;;;;;;;25.70;35.88;99683.91;5034905;28;20037;-64
2022/08/15 09:05:07;;;;;;;6.45;3.83;;;;;;;25.56;36.86;99681.44;5034494;28;20560;-65
2022/08/15 09:07:38;;;;;;;4.05;3.08;;;;;;;25.54;35.91;99697.28;5050192;28;20041;-65
2022/08/15 09:10:06;;;;;;;7.97;3.40;;;;;;;25.51;36.05;99689.78;5032811;28;20041;-66
2022/08/15 09:15:26;;;;;;;8.00;3.45;;;;;;;25.61;36.49;99684.75;5036617;28;20210;-66
2022/08/15 09:17:58;;;;;;;8.00;4.03;;;;;;;25.62;36.37;99682.84;5050435;28;20551;-64
2022/08/15 09:20:32;;;;;;;14.30;3.65;;;;;;;25.58;36.27;99684.63;5033226;28;20160;-64
2022/08/15 09:22:59;;;;;;;3.85;3.45;;;;;;;25.54;36.24;99689.13;5023083;28;20045;-65
2022/08/15 09:25:27;;;;;;;7.30;4.03;;;;;;;25.44;36.59;99687.59;5033417;28;20084;-66
2022/08/15 09:28:04;;;;;;;7.22;4.28;;;;;;;25.37;36.67;99681.91;5050525;28;20045;-64
2022/08/15 09:30:30;;;;;;;6.15;3.88;;;;;;;25.31;36.76;99683.22;5032984;28;20048;-64
2022/08/15 09:33:24;;;;;;;6.43;4.25;;;;;;;25.33;37.01;99689.13;5033617;28;20037;-65
2022/08/15 09:36:11;;;;;;;7.88;5.47;;;;;;;25.37;37.06;99687.31;5049014;28;20106;-65
2022/08/15 09:38:43;;;;;;;5.20;3.60;;;;;;;25.51;36.70;99679.72;5033709;28;20079;-66
2022/08/15 09:41:26;;;;;;;10.27;4.68;;;;;;;25.66;36.63;99675.63;5033564;28;20053;-64
2022/08/15 09:44:10;;;;;;;6.18;4.22;;;;;;;25.75;36.21;99683.72;5050823;28;20494;-65
2022/08/15 09:47:01;;;;;;;8.60;4.57;;;;;;;25.87;36.61;99683.00;5032932;28;20068;-66
2022/08/15 09:49:27;;;;;;;7.35;4.80;;;;;;;25.99;35.85;99683.06;5019265;28;20194;-64
2022/08/15 09:52:02;;;;;;;10.25;4.63;;;;;;;26.16;36.11;99676.69;5049890;28;20124;-66
2022/08/15 09:54:30;;;;;;;8.07;4.50;;;;;;;26.27;35.62;99680.56;5049523;28;20041;-65
2022/08/15 09:57:17;;;;;;;10.02;4.63;;;;;;;26.48;35.17;99675.84;5033528;28;20045;-66
2022/08/15 09:59:43;;;;;;;7.90;4.78;;;;;;;26.62;34.89;99666.59;5032056;28;20059;-65
2022/08/15 10:02:21;;;;;;;8.18;4.38;;;;;;;26.76;35.11;99675.22;5049090;28;20041;-65
2022/08/15 10:04:55;;;;;;;8.48;4.78;;;;;;;26.86;34.04;99668.56;5046870;28;20045;-66
2022/08/15 10:07:59;;;;;;;16.27;5.03;;;;;;;26.99;34.08;99670.16;5050846;28;20051;-65
2022/08/15 10:10:47;;;;;;;6.70;4.63;;;;;;;27.14;33.92;99671.38;5017943;28;20048;-65
2022/08/15 10:13:22;;;;;;;8.30;4.90;;;;;;;27.24;33.39;99665.53;5031559;28;20055;-64
2022/08/15 10:15:50;;;;;;;9.02;5.10;;;;;;;27.27;33.36;99670.28;5031819;28;20431;-64
2022/08/15 10:18:21;;;;;;;15.65;5.28;;;;;;;27.29;33.13;99664.47;5032277;28;20135;-65
2022/08/15 10:20:52;;;;;;;5.90;4.40;;;;;;;27.25;33.18;99663.59;5050061;28;20094;-63
2022/08/15 10:23:28;;;;;;;6.32;4.65;;;;;;;27.13;33.67;99662.44;5041615;28;20036;-68
2022/08/15 10:26:36;;;;;;;10.02;5.22;;;;;;;27.03;33.39;99659.38;5053983;28;20044;-63
2022/08/15 10:29:27;;;;;;;12.20;5.33;;;;;;;26.99;33.33;99674.81;5059206;28;20501;-68
2022/08/15 10:31:58;;;;;;;17.73;9.70;;;;;;;26.86;34.56;99674.00;5032998;28;20541;-64
2022/08/15 10:34:41;;;;;;;11.43;8.82;;;;;;;26.80;34.18;99665.28;5032082;28;20075;-65
2022/08/15 10:37:21;;;;;;;13.38;8.05;;;;;;;26.76;34.54;99669.78;5032745;28;20045;-66
2022/08/15 10:40:08;;;;;;;13.68;8.07;;;;;;;26.79;34.32;99673.78;5063305;28;20501;-65
2022/08/15 10:42:45;;;;;;;8.57;6.43;;;;;;;26.76;33.60;99664.34;5069246;28;20131;-66
2022/08/15 10:45:29;;;;;;;8.63;5.55;;;;;;;26.72;34.07;99666.19;5068539;28;20055;-66
2022/08/15 10:48:24;;;;;;;10.57;4.80;;;;;;;26.65;34.34;99664.03;5068436;28;20044;-66
2022/08/15 10:51:06;;;;;;;20.23;6.25;;;;;;;26.80;34.00;99662.56;5052646;28;20057;-65
2022/08/15 10:53:39;;;;;;;11.13;5.85;;;;;;;26.89;34.57;99671.41;5035332;28;20082;-64
2022/08/15 10:56:28;;;;;;;12.57;8.00;;;;;;;26.94;33.40;99671.19;5049676;28;20548;-63
2022/08/15 10:59:25;;;;;;;6.63;5.47;;;;;;;27.20;33.33;99674.72;5067556;28;20096;-64
2022/08/15 11:02:21;;;;;;;8.32;6.95;;;;;;;27.31;32.17;99660.28;5051634;28;20036;-63
2022/08/15 11:04:48;;;;;;;10.63;9.48;;;;;;;27.29;31.88;99657.09;5040533;28;20052;-63
2022/08/15 11:07:46;;;;;;;9.30;6.10;;;;;;;27.32;31.81;99661.88;5045803;28;20548;-65
2022/08/15 11:10:14;;;;;;;9.65;5.78;;;;;;;27.36;31.44;99667.44;5035627;28;20060;-63
2022/08/15 11:12:48;;;;;;;33.25;8.48;;;;;;;27.39;31.97;99664.81;5029520;28;20040;-64
2022/08/15 11:15:22;;;;;;;16.88;8.45;;;;;;;27.46;31.92;99668.88;5017159;28;20037;-65
2022/08/15 11:17:57;;;;;;;23.48;8.45;;;;;;;27.58;32.63;99674.31;5053493;28;20103;-65
2022/08/15 11:20:27;;;;;;;12.20;5.80;;;;;;;27.63;32.14;99669.41;5027909;28;20045;-63
2022/08/15 11:22:56;;;;;;;8.13;5.15;;;;;;;27.64;32.44;99668.25;5051463;28;20029;-63
2022/08/15 11:25:28;;;;;;;7.15;5.72;;;;;;;27.70;31.27;99662.59;5035910;28;20048;-63
2022/08/15 11:28:10;;;;;;;7.20;5.47;;;;;;;27.85;30.81;99664.59;5053460;28;20037;-64
2022/08/15 11:30:39;;;;;;;13.90;8.25;;;;;;;27.96;31.86;99662.97;5037519;28;20053;-64
2022/08/15 11:33:22;;;;;;;;;;;;;;;28.03;31.59;99670.53;5034005;28;20125;-64
2022/08/15 11:35:49;;;;;;;6.68;5.05;;;;;;;28.08;31.95;99670.28;5021005;28;19974;-65
2022/08/15 11:38:16;;;;;;;7.45;4.82;;;;;;;28.15;31.45;99673.22;5056075;28;20048;-65
2022/08/15 11:40:50;;;;;;;6.75;4.95;;;;;;;28.15;31.93;99673.22;5035770;28;20045;-64
2022/08/15 11:43:16;;;;;;;9.35;5.47;;;;;;;28.02;32.41;99669.75;5067305;28;20509;-65
2022/08/15 11:45:48;;;;;;;11.05;5.53;;;;;;;28.00;33.39;99663.06;5055896;28;20044;-66
2022/08/15 11:48:39;;;;;;;9.13;5.63;;;;;;;28.01;32.99;99670.91;5073277;28;20409;-64
2022/08/15 11:51:27;;;;;;;12.27;6.82;;;;;;;27.99;32.38;99666.94;5035381;28;20080;-66
2022/08/15 11:54:01;;;;;;;24.83;11.85;;;;;;;28.01;33.09;99664.66;5051391;28;20123;-65
2022/08/15 11:56:50;;;;;;;12.50;8.95;;;;;;;28.11;32.65;99666.09;5033715;28;20140;-66
2022/08/15 11:59:24;;;;;;;9.23;5.70;;;;;;;28.06;32.38;99662.47;5053633;28;20103;-65
2022/08/15 12:02:12;;;;;;;14.65;9.77;;;;;;;28.12;32.46;99656.75;5033772;28;20520;-65
2022/08/15 12:04:45;;;;;;;11.82;6.50;;;;;;;28.13;32.58;99648.25;5053231;28;20053;-65
2022/08/15 12:07:28;;;;;;;8.45;7.30;;;;;;;28.21;32.66;99647.31;5035017;28;20045;-64